Time;durP1;ratioP1;P1;durP2;ratioP2;P2;SDS_P1;SDS_P2;PMS_P1;PMS_P2;Temp;Humidity;BMP_temperature;BMP_pressure;BME280_temperature;BME280_humidity;BME280_pressure;Samples;Min_cycle;Max_cycle;Signal;HPM_P1;HPM_P2
2022/11/12 00:00:45;;;;;;;5.50;2.80;;;;;;;8.04;79.95;102455.21;103898;1294;61198;-74
2022/11/12 00:03:11;;;;;;;5.90;2.80;;;;;;;8.02;79.90;102453.72;103729;1302;61251;-75
2022/11/12 00:05:38;;;;;;;4.70;2.90;;;;;;;8.01;79.61;102454.70;103255;1297;74950;-74
2022/11/12 00:08:05;;;;;;;5.00;2.60;;;;;;;8.01;79.80;102452.27;103076;1304;69864;-74
2022/11/12 00:10:31;;;;;;;6.30;2.90;;;;;;;7.99;80.45;102455.58;103105;1295;72069;-74
2022/11/12 00:12:58;;;;;;;4.50;2.60;;;;;;;7.99;80.15;102455.97;103666;1303;61299;-75
2022/11/12 00:15:25;;;;;;;6.10;2.90;;;;;;;7.99;80.09;102455.59;103954;1302;60492;-74
2022/11/12 00:17:52;;;;;;;6.80;3.00;;;;;;;8.00;80.25;102456.41;103247;1301;72525;-74
2022/11/12 00:20:19;;;;;;;6.30;2.90;;;;;;;8.00;80.03;102457.45;103334;1302;71135;-74
2022/11/12 00:22:46;;;;;;;4.80;2.70;;;;;;;7.99;80.01;102459.45;103189;1294;72310;-73
2022/11/12 00:25:12;;;;;;;6.90;2.90;;;;;;;7.99;79.52;102458.23;103211;1295;61855;-74
2022/11/12 00:27:39;;;;;;;4.80;2.60;;;;;;;7.98;79.94;102458.32;104094;1294;61322;-75
2022/11/12 00:30:06;;;;;;;4.80;2.70;;;;;;;7.97;79.95;102460.64;105397;1298;58978;-75
2022/11/12 00:32:36;;;;;;;4.30;2.50;;;;;;;7.96;79.84;102460.39;105087;1289;71606;-74
2022/11/12 00:35:04;;;;;;;4.80;2.50;;;;;;;7.95;79.94;102462.89;103841;1295;72884;-74
2022/11/12 00:37:32;;;;;;;5.70;2.50;;;;;;;7.94;79.86;102464.17;103255;1302;61286;-73
2022/11/12 00:39:58;;;;;;;6.10;2.70;;;;;;;7.96;79.45;102468.50;103291;1294;61314;-73
2022/11/12 00:42:25;;;;;;;4.20;2.40;;;;;;;7.96;79.65;102467.60;103322;1301;75063;-74
2022/11/12 00:44:51;;;;;;;5.60;2.60;;;;;;;7.97;79.56;102466.83;103258;1297;71673;-73
2022/11/12 00:47:18;;;;;;;5.70;2.50;;;;;;;7.97;79.53;102469.41;103232;1295;72491;-73
2022/11/12 00:49:45;;;;;;;4.80;2.30;;;;;;;7.98;79.84;102465.20;103182;1302;61542;-74
2022/11/12 00:52:11;;;;;;;4.60;2.50;;;;;;;7.99;79.39;102467.05;104080;1301;61286;-74
2022/11/12 00:54:38;;;;;;;5.60;2.50;;;;;;;7.99;79.16;102467.41;103904;1297;61327;-73
2022/11/12 00:57:04;;;;;;;4.00;2.30;;;;;;;7.98;79.18;102470.25;103295;1297;61307;-74
2022/11/12 00:59:30;;;;;;;4.10;2.30;;;;;;;8.00;79.26;102470.69;103130;1304;61405;-75
2022/11/12 01:01:57;;;;;;;4.90;2.60;;;;;;;7.99;78.74;102471.77;102983;1302;61349;-74
2022/11/12 01:04:24;;;;;;;4.00;2.50;;;;;;;7.96;78.73;102475.35;103481;1294;61313;-74
2022/11/12 01:06:50;;;;;;;4.00;2.30;;;;;;;7.93;79.10;102473.79;104548;1289;61942;-75
2022/11/12 01:09:16;;;;;;;4.90;2.10;;;;;;;7.90;78.88;102475.76;103569;1300;61445;-74
2022/11/12 01:11:43;;;;;;;3.70;2.40;;;;;;;7.86;78.92;102478.02;103759;1295;61319;-75
2022/11/12 01:14:09;;;;;;;3.70;2.40;;;;;;;7.83;79.12;102472.77;103373;1302;62595;-76
2022/11/12 01:16:39;;;;;;;4.40;2.20;;;;;;;7.81;79.21;102474.89;103447;1301;61831;-75
2022/11/12 01:19:07;;;;;;;4.90;2.40;;;;;;;7.80;79.53;102469.70;102813;1304;73151;-74
2022/11/12 01:21:40;;;;;;;4.60;2.10;;;;;;;7.81;79.48;102471.73;103256;1295;71272;-75
2022/11/12 01:24:07;;;;;;;4.40;2.30;;;;;;;7.82;79.53;102472.52;103156;1297;71211;-73
2022/11/12 01:26:34;;;;;;;5.40;2.20;;;;;;;7.82;79.05;102472.35;103172;1301;61222;-74
2022/11/12 01:29:02;;;;;;;4.40;2.00;;;;;;;7.82;79.12;102475.55;103586;1302;60149;-74
2022/11/12 01:31:35;;;;;;;4.30;2.30;;;;;;;7.81;79.20;102477.85;103643;1295;73245;-74
2022/11/12 01:34:06;;;;;;;3.90;2.10;;;;;;;7.81;79.50;102476.48;103018;1304;69560;-74
2022/11/12 01:36:36;;;;;;;4.80;2.30;;;;;;;7.81;79.42;102476.13;103333;1304;71163;-75
2022/11/12 01:39:05;;;;;;;4.30;2.10;;;;;;;7.82;79.76;102473.19;103249;1302;61562;-74
2022/11/12 01:41:35;;;;;;;4.20;2.20;;;;;;;7.85;79.65;102475.84;103396;1303;62174;-74
2022/11/12 01:44:12;;;;;;;4.30;2.30;;;;;;;7.85;79.56;102476.52;102834;1297;72585;-74
2022/11/12 01:46:54;;;;;;;4.10;2.40;;;;;;;7.87;79.96;102478.67;103067;1295;70984;-74
2022/11/12 01:49:37;;;;;;;4.60;2.50;;;;;;;7.89;80.29;102481.70;103866;1297;72151;-75
2022/11/12 01:52:25;;;;;;;4.00;2.30;;;;;;;7.91;79.83;102481.71;103453;1295;61433;-74
2022/11/12 01:54:54;;;;;;;3.90;2.30;;;;;;;7.93;80.14;102479.63;103555;1304;61346;-74
2022/11/12 01:57:37;;;;;;;5.90;2.40;;;;;;;7.93;79.83;102482.96;102950;1301;73344;-75
2022/11/12 02:00:09;;;;;;;4.80;2.50;;;;;;;7.94;80.16;102481.99;103322;1297;69590;-75
2022/11/12 02:02:36;;;;;;;5.40;2.80;;;;;;;7.96;80.38;102480.08;103374;1287;71210;-75
2022/11/12 02:05:08;;;;;;;5.50;2.60;;;;;;;7.98;80.39;102477.48;103251;1300;61272;-73
2022/11/12 02:07:38;;;;;;;4.50;2.60;;;;;;;7.99;80.25;102481.97;103764;1300;60111;-75
2022/11/12 02:10:06;;;;;;;6.20;2.60;;;;;;;8.00;80.04;102478.91;103105;1303;74422;-74
2022/11/12 02:15:19;;;;;;;4.50;2.70;;;;;;;8.04;80.50;102481.46;102662;1296;72393;-75
2022/11/12 02:17:45;;;;;;;5.50;3.00;;;;;;;8.05;80.38;102478.35;103357;1303;61271;-75
2022/11/12 02:20:13;;;;;;;3.70;2.40;;;;;;;8.05;79.99;102477.65;103235;1300;61330;-74
2022/11/12 02:22:40;;;;;;;4.70;2.60;;;;;;;8.04;79.73;102478.66;103469;1297;74363;-75
2022/11/12 02:25:13;;;;;;;5.40;2.80;;;;;;;8.01;79.73;102479.05;103338;1298;62516;-74
2022/11/12 02:27:39;;;;;;;6.00;3.00;;;;;;;7.97;80.13;102479.89;103097;1305;71266;-74
2022/11/12 02:30:06;;;;;;;4.30;2.90;;;;;;;7.92;79.80;102478.42;103500;1301;62430;-74
2022/11/12 02:32:33;;;;;;;4.50;3.10;;;;;;;7.88;80.54;102479.65;103233;1303;61296;-75
2022/11/12 02:34:59;;;;;;;5.50;3.20;;;;;;;7.85;80.90;102482.02;102694;1304;61769;-74
2022/11/12 02:37:26;;;;;;;4.80;3.30;;;;;;;7.81;80.88;102478.59;103587;1300;70947;-75
2022/11/12 02:39:53;;;;;;;4.60;3.10;;;;;;;7.78;80.97;102477.74;102939;1301;72686;-74
2022/11/12 02:42:19;;;;;;;5.40;3.10;;;;;;;7.75;81.20;102471.21;103852;1302;61398;-74
2022/11/12 02:44:46;;;;;;;5.80;3.30;;;;;;;7.73;80.81;102474.91;102944;1302;61218;-75
2022/11/12 02:47:12;;;;;;;6.70;3.70;;;;;;;7.70;80.97;102478.63;103143;1297;73894;-77
2022/11/12 02:49:39;;;;;;;4.70;3.20;;;;;;;7.67;80.85;102479.56;103598;1286;61368;-75
2022/11/12 02:52:05;;;;;;;5.30;3.30;;;;;;;7.63;80.97;102477.42;103301;1302;61278;-74
2022/11/12 02:54:32;;;;;;;6.40;3.60;;;;;;;7.57;80.56;102482.05;103145;1288;59258;-75
2022/11/12 02:56:58;;;;;;;6.70;3.40;;;;;;;7.51;81.04;102479.49;103517;1294;61293;-76
2022/11/12 02:59:25;;;;;;;6.00;3.60;;;;;;;7.46;80.90;102479.32;103356;1304;61401;-74
2022/11/12 03:01:51;;;;;;;6.50;3.50;;;;;;;7.43;81.02;102477.09;103414;1302;62498;-74
2022/11/12 03:04:18;;;;;;;5.60;3.40;;;;;;;7.39;80.72;102475.10;103097;1295;62830;-74
2022/11/12 03:06:44;;;;;;;4.80;3.40;;;;;;;7.35;81.13;102475.17;103935;1294;62065;-75
2022/11/12 03:09:11;;;;;;;5.40;3.60;;;;;;;7.30;81.28;102470.93;103369;1302;61306;-75
2022/11/12 03:11:38;;;;;;;6.10;3.50;;;;;;;7.25;81.10;102471.52;103698;1303;74773;-75
2022/11/12 03:14:04;;;;;;;6.60;4.10;;;;;;;7.21;81.62;102468.86;103425;1302;61437;-75
2022/11/12 03:16:31;;;;;;;6.50;3.60;;;;;;;7.15;81.43;102470.66;104066;1296;61963;-75
2022/11/12 03:18:57;;;;;;;5.60;3.90;;;;;;;7.09;81.27;102473.55;103979;1302;61359;-75
2022/11/12 03:21:24;;;;;;;5.40;3.90;;;;;;;7.04;81.67;102474.08;103574;1297;61481;-74
2022/11/12 03:23:50;;;;;;;6.50;4.00;;;;;;;6.99;81.58;102473.05;103622;1297;61325;-75
2022/11/12 03:26:16;;;;;;;5.80;3.80;;;;;;;6.91;81.61;102472.98;103952;1295;61282;-75
2022/11/12 03:28:43;;;;;;;9.40;4.10;;;;;;;6.85;81.60;102472.37;103468;1301;61420;-74
2022/11/12 03:31:10;;;;;;;6.30;3.60;;;;;;;6.79;81.85;102474.74;103507;1297;61927;-75
2022/11/12 03:33:37;;;;;;;7.10;4.00;;;;;;;6.75;82.83;102471.66;103673;1295;61283;-74
2022/11/12 03:36:04;;;;;;;6.80;3.60;;;;;;;6.74;83.30;102476.14;103565;1301;74946;-74
2022/11/12 03:38:30;;;;;;;7.10;3.60;;;;;;;6.76;84.25;102474.80;104017;1297;69844;-75
2022/11/12 03:40:57;;;;;;;6.30;3.80;;;;;;;6.79;84.52;102475.96;103396;1299;61381;-74
2022/11/12 03:43:23;;;;;;;6.30;3.40;;;;;;;6.84;84.73;102476.16;104125;1304;59595;-75
2022/11/12 03:45:50;;;;;;;5.40;3.20;;;;;;;6.92;85.17;102481.56;103577;1297;61191;-75
2022/11/12 03:48:16;;;;;;;6.00;3.60;;;;;;;6.99;85.04;102478.84;103653;1294;59277;-75
2022/11/12 03:50:43;;;;;;;7.00;3.30;;;;;;;7.03;83.92;102486.64;103404;1301;61378;-75
2022/11/12 03:53:10;;;;;;;6.10;3.50;;;;;;;7.03;83.26;102485.55;103974;1297;61886;-74
2022/11/12 03:55:36;;;;;;;5.60;3.50;;;;;;;7.01;82.70;102484.52;103618;1306;61402;-74
2022/11/12 03:58:03;;;;;;;6.90;3.60;;;;;;;6.95;82.74;102478.88;103811;1301;61273;-75
2022/11/12 04:00:30;;;;;;;5.70;3.30;;;;;;;6.89;82.53;102476.12;103848;1297;73225;-75
2022/11/12 04:02:57;;;;;;;6.50;3.40;;;;;;;6.82;82.68;102474.36;105099;1294;71394;-75
2022/11/12 04:08:36;;;;;;;6.00;3.40;;;;;;;6.75;83.08;102463.27;105432;1290;58956;-76
2022/11/12 04:11:09;;;;;;;7.50;3.60;;;;;;;6.71;82.99;102466.53;105285;1287;59232;-75
2022/11/12 04:13:37;;;;;;;5.90;3.30;;;;;;;6.68;83.42;102470.08;103949;1305;73606;-75
2022/11/12 04:21:57;;;;;;;6.30;3.60;;;;;;;6.60;84.17;102461.66;103005;1298;61267;-74
2022/11/12 04:27:23;;;;;;;6.10;3.80;;;;;;;6.53;83.94;102468.61;103377;1302;74463;-75
2022/11/12 04:32:39;;;;;;;6.20;3.90;;;;;;;6.47;83.82;102460.20;103468;1305;71503;-74
2022/11/12 04:35:07;;;;;;;8.30;4.00;;;;;;;6.43;83.96;102455.23;102916;1297;61391;-74
2022/11/12 04:37:44;;;;;;;6.80;4.00;;;;;;;6.41;84.05;102461.38;103103;1306;60582;-76
2022/11/12 04:46:03;;;;;;;5.60;4.00;;;;;;;6.29;84.56;102461.98;103715;1301;71109;-75
2022/11/12 04:48:30;;;;;;;6.50;3.80;;;;;;;6.25;84.38;102464.38;103347;1301;59786;-75
2022/11/12 04:51:01;;;;;;;7.30;4.40;;;;;;;6.19;84.24;102463.69;103550;1302;61647;-75
2022/11/12 04:53:29;;;;;;;6.00;4.30;;;;;;;6.15;84.47;102461.19;103256;1301;74457;-76
2022/11/12 04:55:58;;;;;;;8.20;4.00;;;;;;;6.12;85.77;102458.75;103397;1294;71274;-76
2022/11/12 04:58:24;;;;;;;5.10;3.70;;;;;;;6.10;85.92;102456.91;103137;1294;72560;-76
2022/11/12 05:00:51;;;;;;;6.50;4.00;;;;;;;6.09;85.42;102457.70;103596;1288;61289;-75
2022/11/12 05:03:18;;;;;;;5.70;3.90;;;;;;;6.06;85.42;102462.63;103073;1297;61379;-75
2022/11/12 05:05:44;;;;;;;6.70;4.00;;;;;;;6.04;85.10;102465.91;103592;1295;61273;-74
2022/11/12 05:08:11;;;;;;;6.60;3.90;;;;;;;6.02;85.01;102462.58;103310;1295;61311;-75
2022/11/12 05:10:37;;;;;;;7.30;4.10;;;;;;;5.95;84.56;102458.80;103198;1305;61349;-75
2022/11/12 05:13:04;;;;;;;6.50;4.20;;;;;;;5.85;83.83;102459.62;103285;1296;59580;-75
2022/11/12 05:15:30;;;;;;;6.80;4.20;;;;;;;5.75;83.85;102464.84;103545;1298;61240;-75
2022/11/12 05:17:57;;;;;;;8.50;4.50;;;;;;;5.67;84.32;102467.93;102910;1304;62729;-75
2022/11/12 05:20:23;;;;;;;7.00;4.40;;;;;;;5.61;84.37;102463.59;103272;1302;61279;-75
2022/11/12 05:22:50;;;;;;;8.00;4.50;;;;;;;5.54;84.51;102462.30;103465;1302;59170;-75
2022/11/12 05:25:34;;;;;;;7.70;4.60;;;;;;;5.47;84.64;102461.38;103575;1304;61271;-74
2022/11/12 05:28:00;;;;;;;8.50;5.20;;;;;;;5.40;84.50;102466.38;103158;1297;62730;-74
2022/11/12 05:30:27;;;;;;;11.70;6.00;;;;;;;5.32;84.28;102468.45;103631;1302;61292;-73
2022/11/12 05:32:53;;;;;;;9.90;5.60;;;;;;;5.22;84.14;102465.36;103156;1300;61773;-74
2022/11/12 05:35:20;;;;;;;8.90;5.70;;;;;;;5.12;84.35;102467.38;103414;1300;61254;-76
2022/11/12 05:37:46;;;;;;;8.40;5.10;;;;;;;5.04;84.56;102464.77;103194;1294;61340;-76
2022/11/12 05:40:12;;;;;;;8.30;5.60;;;;;;;4.97;84.91;102466.60;103739;1297;61279;-75
2022/11/12 05:42:39;;;;;;;12.70;5.80;;;;;;;4.88;85.00;102462.35;103454;1297;61317;-75
2022/11/12 05:48:47;;;;;;;8.00;5.70;;;;;;;4.74;85.92;102467.29;103906;1300;71102;-75
2022/11/12 05:51:13;;;;;;;8.40;5.50;;;;;;;4.70;85.99;102465.95;103662;1297;61309;-75
2022/11/12 05:53:41;;;;;;;8.40;5.20;;;;;;;4.67;86.42;102458.42;104167;1294;61226;-74
2022/11/12 05:56:09;;;;;;;9.10;5.60;;;;;;;4.66;86.81;102454.77;103674;1294;74561;-75
2022/11/12 05:58:36;;;;;;;9.00;5.70;;;;;;;4.66;87.34;102457.27;103951;1302;71081;-75
2022/11/12 06:01:03;;;;;;;8.70;5.90;;;;;;;4.66;88.02;102457.77;103450;1297;72453;-74
2022/11/12 06:03:30;;;;;;;7.30;5.30;;;;;;;4.68;88.33;102456.95;104032;1303;61466;-75
2022/11/12 06:05:56;;;;;;;8.50;5.60;;;;;;;4.71;88.62;102462.53;103257;1295;61416;-74
2022/11/12 06:08:23;;;;;;;9.30;5.30;;;;;;;4.75;88.84;102464.80;103532;1302;73095;-75
2022/11/12 06:10:53;;;;;;;9.50;5.90;;;;;;;4.77;88.80;102464.64;103703;1296;71151;-75
2022/11/12 06:13:22;;;;;;;9.40;6.00;;;;;;;4.79;88.69;102465.42;103752;1297;71658;-74
2022/11/12 06:15:50;;;;;;;7.40;4.80;;;;;;;4.76;88.08;102463.32;103241;1301;61390;-75
2022/11/12 06:18:16;;;;;;;10.00;5.30;;;;;;;4.71;87.62;102457.80;103615;1295;61449;-75
2022/11/12 06:20:43;;;;;;;7.30;5.00;;;;;;;4.65;87.40;102457.14;103765;1297;61254;-75
2022/11/12 06:23:09;;;;;;;7.50;5.10;;;;;;;4.61;87.46;102461.79;103765;1302;61300;-75
2022/11/12 06:25:36;;;;;;;9.10;5.60;;;;;;;4.57;87.76;102467.60;103539;1302;61337;-75
2022/11/12 06:28:02;;;;;;;8.10;5.50;;;;;;;4.53;87.66;102467.68;103755;1304;61283;-75
2022/11/12 06:30:29;;;;;;;7.60;5.40;;;;;;;4.48;87.49;102467.06;103507;1297;61478;-74
2022/11/12 06:32:55;;;;;;;9.20;5.70;;;;;;;4.43;87.47;102464.56;103702;1293;59456;-75
2022/11/12 06:35:22;;;;;;;8.50;5.50;;;;;;;4.38;87.31;102461.73;103369;1302;61300;-75
2022/11/12 06:37:48;;;;;;;8.40;5.80;;;;;;;4.33;87.39;102467.27;104236;1296;61306;-75
2022/11/12 06:40:15;;;;;;;8.60;5.90;;;;;;;4.30;87.36;102469.55;102921;1304;61278;-74
2022/11/12 06:42:41;;;;;;;7.80;5.60;;;;;;;4.28;87.73;102472.84;103538;1302;61273;-74
2022/11/12 06:45:08;;;;;;;8.40;6.00;;;;;;;4.27;87.89;102477.27;103283;1305;61405;-76
2022/11/12 06:47:35;;;;;;;9.30;6.50;;;;;;;4.25;88.03;102482.27;103880;1301;70249;-76
2022/11/12 06:50:02;;;;;;;10.30;6.70;;;;;;;4.25;88.16;102489.46;103415;1303;71376;-75
2022/11/12 06:52:28;;;;;;;9.10;6.40;;;;;;;4.24;88.13;102488.98;103704;1295;60394;-75
2022/11/12 06:54:55;;;;;;;10.00;7.40;;;;;;;4.26;88.15;102490.83;103408;1295;61324;-76
2022/11/12 06:57:21;;;;;;;11.60;7.20;;;;;;;4.27;88.57;102491.44;104149;1297;61722;-75
2022/11/12 06:59:47;;;;;;;11.60;7.40;;;;;;;4.27;88.48;102493.53;105134;1295;59062;-75
2022/11/12 07:02:14;;;;;;;10.20;7.20;;;;;;;4.29;88.81;102492.92;105470;1288;59285;-74
2022/11/12 07:04:40;;;;;;;11.50;7.30;;;;;;;4.32;89.23;102491.36;103839;1301;61402;-75
2022/11/12 07:07:07;;;;;;;11.90;7.20;;;;;;;4.35;89.12;102496.41;103579;1296;61528;-75
2022/11/12 07:09:36;;;;;;;11.00;7.50;;;;;;;4.41;89.50;102500.27;103439;1298;77736;-74
2022/11/12 07:12:04;;;;;;;11.70;7.40;;;;;;;4.50;90.10;102504.83;103427;1305;71406;-75
2022/11/12 07:14:31;;;;;;;11.90;7.10;;;;;;;4.59;90.23;102506.42;104094;1297;72484;-74
2022/11/12 07:16:57;;;;;;;11.70;7.80;;;;;;;4.64;89.97;102503.61;103485;1302;61320;-74
2022/11/12 07:19:23;;;;;;;9.80;6.80;;;;;;;4.68;89.89;102510.23;103650;1294;61332;-75
2022/11/12 07:21:50;;;;;;;9.50;6.70;;;;;;;4.74;90.03;102517.41;104581;1296;59998;-74
2022/11/12 07:24:17;;;;;;;9.70;6.30;;;;;;;4.79;90.14;102516.94;103215;1302;69954;-74
2022/11/12 07:26:43;;;;;;;10.70;6.70;;;;;;;4.86;90.16;102516.14;104215;1301;61788;-74
2022/11/12 07:29:13;;;;;;;9.50;6.90;;;;;;;4.95;90.30;102515.63;103812;1299;59859;-73
2022/11/12 07:31:59;;;;;;;10.30;6.20;;;;;;;5.04;90.16;102517.34;103516;1300;62894;-73
2022/11/12 07:34:25;;;;;;;10.40;6.40;;;;;;;5.13;90.15;102515.73;104504;1301;58868;-72
2022/11/12 07:36:52;;;;;;;10.80;6.00;;;;;;;5.23;90.12;102510.55;103168;1298;61150;-72
2022/11/12 07:39:18;;;;;;;9.70;6.20;;;;;;;5.34;89.91;102510.10;103461;1303;61385;-72
2022/11/12 07:41:45;;;;;;;8.00;5.80;;;;;;;5.43;89.64;102510.38;104062;1296;61532;-72
2022/11/12 07:44:11;;;;;;;9.10;6.30;;;;;;;5.51;89.41;102514.95;103941;1301;61494;-73
2022/11/12 07:46:38;;;;;;;8.80;6.60;;;;;;;5.59;89.33;102520.77;103699;1291;59534;-73
2022/11/12 07:49:05;;;;;;;11.40;8.60;;;;;;;5.68;89.31;102515.09;103435;1298;70991;-73
2022/11/12 07:51:31;;;;;;;8.80;6.00;;;;;;;5.80;89.39;102511.91;104297;1300;59065;-73
2022/11/12 07:54:01;;;;;;;10.50;6.10;;;;;;;5.89;88.85;102512.55;103648;1300;61254;-73
2022/11/12 07:56:27;;;;;;;8.40;6.00;;;;;;;5.95;88.62;102515.13;103376;1292;61425;-73
2022/11/12 07:58:54;;;;;;;10.30;6.40;;;;;;;6.08;88.71;102513.80;103847;1304;73830;-73
2022/11/12 08:01:32;;;;;;;9.30;6.20;;;;;;;6.20;88.97;102510.87;103576;1300;69311;-73
2022/11/12 08:04:00;;;;;;;10.30;6.00;;;;;;;6.38;88.78;102512.17;104442;1299;71147;-73
2022/11/12 08:06:28;;;;;;;8.30;5.60;;;;;;;6.54;88.99;102512.11;103462;1305;61076;-73
2022/11/12 08:08:57;;;;;;;9.70;5.90;;;;;;;6.72;88.92;102511.45;103779;1302;62620;-73
2022/11/12 08:11:24;;;;;;;7.70;5.10;;;;;;;6.90;88.68;102503.04;103193;1302;73161;-73
2022/11/12 08:13:50;;;;;;;8.60;5.70;;;;;;;7.07;88.34;102510.27;103550;1296;70361;-73
2022/11/12 08:16:17;;;;;;;8.90;5.40;;;;;;;7.26;88.50;102518.44;103312;1301;72458;-73
2022/11/12 08:18:45;;;;;;;9.90;5.30;;;;;;;7.46;87.99;102522.86;103403;1301;61295;-73
2022/11/12 08:21:13;;;;;;;7.40;5.20;;;;;;;7.65;87.75;102517.39;103399;1300;61283;-73
2022/11/12 08:23:41;;;;;;;9.90;5.00;;;;;;;7.86;87.26;102516.97;104001;1300;76730;-73
2022/11/12 08:26:10;;;;;;;8.20;4.40;;;;;;;8.04;86.22;102518.10;103495;1295;69669;-73
2022/11/12 08:28:38;;;;;;;7.40;4.70;;;;;;;8.20;85.29;102520.27;103942;1301;71198;-72
2022/11/12 08:31:11;;;;;;;7.70;4.00;;;;;;;8.39;85.45;102530.11;103441;1300;62067;-73
2022/11/12 08:33:39;;;;;;;6.40;3.80;;;;;;;8.59;84.85;102530.40;103387;1301;59997;-72
2022/11/12 08:36:08;;;;;;;7.50;4.50;;;;;;;8.78;84.36;102528.58;103598;1302;73536;-72
2022/11/12 08:38:35;;;;;;;6.00;3.80;;;;;;;8.99;84.03;102524.53;103684;1299;69627;-73
2022/11/12 08:41:03;;;;;;;7.00;4.00;;;;;;;9.17;83.25;102523.30;103918;1297;73265;-72
2022/11/12 08:43:29;;;;;;;7.40;3.70;;;;;;;9.34;82.72;102519.24;103646;1302;61282;-73
2022/11/12 08:45:58;;;;;;;5.70;3.50;;;;;;;9.52;82.26;102513.80;103274;1297;61478;-72
2022/11/12 08:48:27;;;;;;;4.70;3.50;;;;;;;9.69;82.04;102519.33;103444;1293;73467;-72
2022/11/12 08:50:55;;;;;;;7.40;3.60;;;;;;;9.85;81.36;102525.96;104050;1294;69609;-72
2022/11/12 08:53:23;;;;;;;5.90;3.30;;;;;;;10.05;80.95;102522.77;103455;1300;73508;-72
2022/11/12 08:55:54;;;;;;;6.90;3.50;;;;;;;10.21;79.88;102521.44;103431;1300;61369;-73
2022/11/12 08:58:21;;;;;;;5.40;3.20;;;;;;;10.38;79.47;102526.08;103905;1295;61266;-73
2022/11/12 09:00:49;;;;;;;5.20;2.90;;;;;;;10.55;78.77;102529.59;103798;1295;73495;-73
2022/11/12 09:03:21;;;;;;;5.20;3.30;;;;;;;10.71;78.18;102526.61;104856;1294;69666;-73
2022/11/12 09:05:49;;;;;;;5.50;3.10;;;;;;;10.89;77.26;102522.60;105346;1297;73018;-73
2022/11/12 09:08:20;;;;;;;5.30;2.90;;;;;;;11.05;76.80;102521.08;104124;1295;62044;-73
2022/11/12 09:10:47;;;;;;;5.10;2.80;;;;;;;11.25;76.40;102531.60;104181;1300;61283;-73
2022/11/12 09:13:14;;;;;;;4.60;2.70;;;;;;;11.45;75.89;102527.27;103655;1297;75325;-73
2022/11/12 09:15:40;;;;;;;5.40;2.50;;;;;;;11.64;74.63;102522.79;104223;1295;61418;-73
2022/11/12 09:18:12;;;;;;;4.30;3.00;;;;;;;11.82;73.82;102520.68;104012;1294;61417;-73
2022/11/12 09:20:39;;;;;;;7.00;3.10;;;;;;;12.02;73.59;102518.52;103291;1303;61322;-72
2022/11/12 09:23:11;;;;;;;5.00;3.20;;;;;;;12.24;73.53;102523.45;103352;1302;61276;-72
2022/11/12 09:25:41;;;;;;;5.40;3.40;;;;;;;12.45;73.33;102522.41;103602;1302;74794;-71
2022/11/12 09:28:16;;;;;;;7.10;3.30;;;;;;;12.62;73.04;102523.45;103436;1293;71712;-71
2022/11/12 09:30:48;;;;;;;5.00;3.00;;;;;;;12.79;72.29;102532.66;103509;1298;70855;-73
2022/11/12 09:33:17;;;;;;;5.10;2.90;;;;;;;12.93;70.66;102534.27;104032;1294;61855;-73
2022/11/12 09:35:44;;;;;;;6.20;3.40;;;;;;;13.06;70.29;102533.18;104860;1296;61174;-72
2022/11/12 09:38:13;;;;;;;4.80;2.80;;;;;;;13.19;69.88;102533.52;104521;1298;74425;-72
2022/11/12 09:40:52;;;;;;;6.20;2.90;;;;;;;13.33;69.25;102527.59;103481;1305;71230;-71
2022/11/12 09:43:36;;;;;;;6.20;3.00;;;;;;;13.46;68.22;102527.45;104364;1302;72477;-73
2022/11/12 09:46:35;;;;;;;4.40;2.90;;;;;;;13.52;67.88;102534.31;103975;1297;60271;-72
2022/11/12 09:49:10;;;;;;;5.80;2.70;;;;;;;13.58;67.31;102536.09;104225;1301;61393;-72
2022/11/12 09:51:45;;;;;;;6.30;3.30;;;;;;;13.65;67.90;102534.77;103644;1302;73653;-72
2022/11/12 09:54:25;;;;;;;5.20;3.50;;;;;;;13.77;68.10;102532.79;104513;1295;70034;-72
2022/11/12 09:56:53;;;;;;;5.70;3.00;;;;;;;13.93;68.47;102527.64;104127;1296;70931;-72
2022/11/12 09:59:22;;;;;;;5.10;2.90;;;;;;;14.11;68.31;102530.64;103729;1303;61986;-72
2022/11/12 10:02:14;;;;;;;4.30;2.90;;;;;;;14.21;67.31;102534.42;104211;1295;62896;-72
2022/11/12 10:04:44;;;;;;;5.10;3.00;;;;;;;14.23;66.43;102535.09;103977;1300;74429;-72
2022/11/12 10:07:30;;;;;;;4.20;2.80;;;;;;;14.25;66.71;102532.91;104065;1298;71157;-72
2022/11/12 10:10:04;;;;;;;6.10;3.30;;;;;;;14.31;66.63;102527.00;104166;1288;71905;-72
2022/11/12 10:13:07;;;;;;;4.70;3.20;;;;;;;14.29;66.28;102525.27;104335;1294;62166;-73
2022/11/12 10:18:48;;;;;;;4.70;3.30;;;;;;;14.26;64.96;102532.91;104121;1299;74458;-73
2022/11/12 10:21:44;;;;;;;4.30;3.60;;;;;;;14.21;65.74;102533.73;105339;1294;69165;-72
2022/11/12 10:24:11;;;;;;;6.70;3.70;;;;;;;14.23;66.34;102530.61;105314;1293;70775;-72
2022/11/12 10:26:38;;;;;;;5.60;3.50;;;;;;;14.23;66.03;102522.27;105133;1296;60601;-73
2022/11/12 10:29:23;;;;;;;5.40;3.10;;;;;;;14.23;66.23;102516.24;105185;1287;59051;-72
2022/11/12 10:31:49;;;;;;;6.30;3.80;;;;;;;14.27;66.40;102515.37;105482;1293;73096;-72
2022/11/12 10:34:18;;;;;;;6.50;3.70;;;;;;;14.37;66.67;102520.95;104396;1300;59208;-72
2022/11/12 10:37:14;;;;;;;4.70;3.30;;;;;;;14.49;66.88;102523.60;103169;1300;72470;-72
2022/11/12 10:39:44;;;;;;;6.90;4.00;;;;;;;14.56;66.39;102521.67;103309;1302;62165;-72
2022/11/12 10:42:15;;;;;;;5.10;3.50;;;;;;;14.66;66.74;102518.55;102949;1302;61225;-72
2022/11/12 10:44:42;;;;;;;6.00;3.40;;;;;;;14.77;65.99;102520.25;103866;1302;74885;-72
2022/11/12 10:47:21;;;;;;;4.10;3.00;;;;;;;14.87;65.62;102526.70;103364;1294;69703;-72
2022/11/12 10:50:18;;;;;;;4.60;2.80;;;;;;;14.93;63.99;102513.30;103869;1301;71953;-72
2022/11/12 10:53:02;;;;;;;5.40;3.00;;;;;;;14.92;63.70;102506.03;103515;1301;61229;-72
2022/11/12 10:55:35;;;;;;;6.70;2.90;;;;;;;14.98;63.96;102500.45;103527;1290;61577;-72
2022/11/12 10:58:06;;;;;;;5.80;3.30;;;;;;;15.06;63.63;102504.16;103379;1302;72143;-72
2022/11/12 11:00:33;;;;;;;4.00;2.70;;;;;;;15.19;62.55;102505.27;103534;1294;71417;-72
2022/11/12 11:03:04;;;;;;;3.70;2.60;;;;;;;15.28;62.25;102505.50;103741;1300;72429;-72
2022/11/12 11:05:35;;;;;;;4.20;2.50;;;;;;;15.43;62.17;102503.04;103661;1295;209187;-72
2022/11/12 11:08:03;;;;;;;3.90;2.20;;;;;;;15.51;61.01;102505.59;103533;1297;60238;-72
2022/11/12 11:10:32;;;;;;;3.50;2.30;;;;;;;15.57;60.61;102511.04;103172;1300;73383;-73
2022/11/12 11:13:25;;;;;;;4.90;2.40;;;;;;;15.56;59.72;102511.84;103837;1301;69622;-73
2022/11/12 11:16:02;;;;;;;4.70;3.10;;;;;;;15.54;60.09;102507.58;103571;1300;72732;-73
2022/11/12 11:18:31;;;;;;;6.10;3.30;;;;;;;15.59;59.45;102500.84;104062;1293;61320;-72
2022/11/12 11:21:23;;;;;;;4.60;2.70;;;;;;;15.64;58.82;102486.59;103448;1301;61341;-72
2022/11/12 11:23:56;;;;;;;4.10;2.80;;;;;;;15.65;58.65;102480.20;103818;1302;74755;-72
2022/11/12 11:26:35;;;;;;;4.70;2.90;;;;;;;15.76;59.33;102475.41;103459;1302;70939;-73
2022/11/12 11:29:18;;;;;;;4.10;2.80;;;;;;;15.93;59.07;102474.59;103942;1301;70593;-73
2022/11/12 11:31:56;;;;;;;4.30;2.70;;;;;;;16.04;58.79;102473.55;102919;1295;61200;-73
2022/11/12 11:35:00;;;;;;;4.90;2.90;;;;;;;16.20;58.63;102472.31;103915;1294;60786;-73
2022/11/12 11:37:29;;;;;;;5.70;3.00;;;;;;;16.48;58.40;102467.27;103514;1302;73847;-71
2022/11/12 11:40:14;;;;;;;4.30;2.70;;;;;;;16.67;58.05;102464.25;103650;1298;69615;-72
2022/11/12 11:43:03;;;;;;;4.00;2.70;;;;;;;16.81;57.42;102465.33;103631;1297;71105;-72
2022/11/12 11:45:54;;;;;;;5.20;2.90;;;;;;;16.96;57.55;102468.73;103489;1304;61382;-72
2022/11/12 11:48:56;;;;;;;4.20;2.90;;;;;;;17.16;57.31;102472.34;103494;1296;60201;-72
2022/11/12 11:52:12;;;;;;;6.40;3.40;;;;;;;17.24;57.62;102467.91;103706;1302;73843;-72
2022/11/12 11:55:12;;;;;;;5.50;3.10;;;;;;;17.30;57.60;102465.49;103808;1300;69640;-71
2022/11/12 11:58:10;;;;;;;4.60;3.20;;;;;;;17.45;57.52;102463.09;104095;1294;73688;-72
2022/11/12 12:01:02;;;;;;;4.10;2.80;;;;;;;17.50;56.70;102462.29;103823;1303;61353;-72
2022/11/12 12:03:45;;;;;;;5.20;2.90;;;;;;;17.45;56.48;102455.08;103818;1302;58782;-72
2022/11/12 12:06:26;;;;;;;4.80;3.10;;;;;;;17.46;56.51;102450.80;103644;1301;74649;-73